This is the latest recevied weather packets stored in our database for station/object SIILIN. If no packets are shown the sender has not sent any weather packets the latest 10 day(s).
| Time | Temp. | Humidity | Pressure | Rain* | Wind** | Luminosity | Snow |
|---|---|---|---|---|---|---|---|
| 1777745226 | 12.78° C | 46% | 1006.3 hPa | - | - | - | - |
| 1777744026 | 14.44° C | 39% | 1006.3 hPa | - | - | - | - |
| 1777742827 | 14.44° C | 38% | 1006.4 hPa | - | - | - | - |
| 1777741626 | 13.89° C | 43% | 1006.5 hPa | - | - | - | - |
| 1777740426 | 14.44° C | 37% | 1006.4 hPa | - | - | - | - |
| 1777739225 | 14.44° C | 40% | 1006.6 hPa | - | - | - | - |
| 1777738026 | 14.44° C | 36% | 1006.5 hPa | - | - | - | - |
| 1777736826 | 15° C | 35% | 1006.7 hPa | - | - | - | - |
| 1777735625 | 14.44° C | 38% | 1006.8 hPa | - | - | - | - |
| 1777734426 | 14.44° C | 36% | 1006.9 hPa | - | - | - | - |
| 1777733225 | 15° C | 36% | 1006.8 hPa | - | - | - | - |
| 1777732026 | 14.44° C | 41% | 1006.8 hPa | - | - | - | - |
| 1777729626 | 15° C | 38% | 1006.8 hPa | - | - | - | - |
| 1777728426 | 15° C | 39% | 1006.9 hPa | - | - | - | - |
| 1777727226 | 15.56° C | 37% | 1006.8 hPa | - | - | - | - |
| 1777726026 | 15.56° C | 35% | 1006.9 hPa | - | - | - | - |
| 1777724825 | 15.56° C | 36% | 1007 hPa | - | - | - | - |
| 1777723626 | 15.56° C | 35% | 1007.1 hPa | - | - | - | - |
| 1777722426 | 15.56° C | 35% | 1007.2 hPa | - | - | - | - |
| 1777721225 | 16.11° C | 32% | 1007.1 hPa | - | - | - | - |
| 1777720025 | 16.11° C | 32% | 1007.3 hPa | - | - | - | - |
| 1777718825 | 15.56° C | 33% | 1007.2 hPa | - | - | - | - |
| 1777717625 | 15° C | 35% | 1007.5 hPa | - | - | - | - |
| 1777716425 | 15.56° C | 35% | 1007.5 hPa | - | - | - | - |
| 1777715225 | 15.56° C | 36% | 1007.6 hPa | - | - | - | - |
* Rain since midnight (hover to see other rain measurements)
** Current wind speed in m/s (hover to see current wind gust speed)